Glasco, KS (67445)

12:47 PM CDT on September 04, 2015 (GMT -0500)
1.5 miles East of Glasco | | Change Station
CLOSE
Current Station
Personal Weather Station
Location: Glasco, KS
Elevation: 1358 ft
Nearby Weather Stations

Elev 1358 ft 39.37 °N, 97.81 °W | Updated 22 seconds ago

Clear
Clear
90.9 °F
Feels Like 92 °F
N
19.9
Wind Variable Wind from SSW
Gusts 24.8 mph

Today
High -- | Low -- °F
--% Chance of Precip.
Yesterday
High -- | Low -- °F
Precip. -- in
7:02 AM 7:57 PM
Waning Gibbous, 57% visible
Pressure 29.85 in
Visibility 10.0 miles
Clouds Clear
Heat Index 92 °F
Dew Point 64 °F
Humidity 41%
Rainfall 0.00 in
Snow Depth Not available.
UV 5.0 out of 12
Pollen 11.20 out of 12
Air Quality Not available.
Flu Activity Not available.
METAR KCNK 041655Z AUTO 17017G29KT 10SM CLR 32/18 A2991 RMK AO2 PK WND 19031/1637 SLP107 T03170183
Pressure 29.85 in
Visibility 10.0 miles
Clouds Clear
Heat Index 92 °F
Dew Point 64 °F
Humidity 41%
Rainfall 0.00 in
Snow Depth Not available.
UV 5.0 out of 12
Pollen 11.20 out of 12
Air Quality Not available.
Flu Activity Not available.
METAR KCNK 041655Z AUTO 17017G29KT 10SM CLR 32/18 A2991 RMK AO2 PK WND 19031/1637 SLP107 T03170183

10-Day Weather Forecast

×

Almanac

Astronomy

Sep. 04, 2015 Rise Set
Actual Time
Civil Twilight
Nautical Twilight
Astronomical Twilight
Moon
Length of Visible Light
Length of Day
Tomorrow will be .
, % of the Moon is Illuminated

Today's Extremes

State Highs State Lows

Community

WunderPhotos

Upload Photos

1,852,250 photos uploaded!

WunderBlogs® & News

Nearby

Air Quality

  Air Quality AQ Index Pollutant
Not available.

Snow Depth

Station Depth Elevation

Earthquake Activity

City Distance Mag. Time & Date
Minimum magnitude displayed is 2.5.

Coastal Water Temperatures

Place Temperature

Stations

Nearby Weather Stations

Station Location Temp. Windchill Dew Point Humidity Wind Precip. Elev Updated Type